Time;durP1;ratioP1;P1;durP2;ratioP2;P2;SDS_P1;SDS_P2;PMS_P1;PMS_P2;Temp;Humidity;BMP_temperature;BMP_pressure;BME280_temperature;BME280_humidity;BME280_pressure;Samples;Min_cycle;Max_cycle;Signal;HPM_P1;HPM_P2
2023/09/02 00:00:59;;;;;;;47.38;25.85;;;13.30;99.90;;;;;;5050891;28;20047;-58
2023/09/02 00:03:27;;;;;;;53.03;26.05;;;13.30;99.90;;;;;;5052498;28;20377;-58
2023/09/02 00:05:55;;;;;;;41.67;23.95;;;13.20;99.90;;;;;;5051109;28;20045;-58
2023/09/02 00:08:23;;;;;;;45.20;25.52;;;13.30;99.90;;;;;;5048924;28;20396;-58
2023/09/02 00:10:50;;;;;;;46.58;26.10;;;13.20;99.90;;;;;;5050855;28;20463;-58
2023/09/02 00:13:18;;;;;;;43.35;25.50;;;13.20;99.90;;;;;;5056683;28;20043;-58
2023/09/02 00:15:46;;;;;;;41.70;23.98;;;13.20;99.90;;;;;;5051221;28;20493;-58
2023/09/02 00:18:14;;;;;;;42.35;23.27;;;13.20;99.90;;;;;;5049440;28;20139;-58
2023/09/02 00:20:42;;;;;;;37.53;22.95;;;13.20;99.90;;;;;;5050892;28;20048;-58
2023/09/02 00:23:10;;;;;;;40.63;23.77;;;13.20;99.90;;;;;;5040081;28;20049;-59
2023/09/02 00:25:38;;;;;;;38.67;22.40;;;13.10;99.90;;;;;;5049237;28;20053;-59
2023/09/02 00:28:05;;;;;;;38.80;23.08;;;13.10;99.90;;;;;;5050416;28;20071;-58
2023/09/02 00:30:34;;;;;;;38.63;22.25;;;13.10;99.90;;;;;;5050764;28;20047;-58
2023/09/02 00:33:02;;;;;;;41.22;22.13;;;13.10;99.90;;;;;;5054934;28;20040;-58
2023/09/02 00:35:30;;;;;;;41.08;23.05;;;13.10;99.90;;;;;;5051913;28;20408;-58
2023/09/02 00:37:57;;;;;;;47.17;26.38;;;13.10;99.90;;;;;;5046592;28;20084;-58
2023/09/02 00:40:27;;;;;;;42.13;24.27;;;13.10;99.90;;;;;;5049309;28;20488;-58
2023/09/02 00:42:55;;;;;;;;;;;13.20;99.90;;;;;;5052355;28;20507;-58
2023/09/02 00:45:23;;;;;;;41.60;23.40;;;13.30;99.90;;;;;;5051402;28;19921;-58
2023/09/02 00:47:53;;;;;;;46.50;24.95;;;13.30;99.90;;;;;;5050236;28;20045;-59
2023/09/02 00:50:21;;;;;;;40.83;23.95;;;13.30;99.90;;;;;;5049936;28;20053;-58
2023/09/02 00:52:49;;;;;;;45.03;24.67;;;13.30;99.90;;;;;;5046362;28;20527;-58
2023/09/02 00:55:17;;;;;;;45.40;26.00;;;13.40;99.90;;;;;;5036152;28;20053;-58
2023/09/02 00:57:45;;;;;;;49.95;28.83;;;13.40;99.90;;;;;;5036053;28;20049;-58
2023/09/02 01:00:14;;;;;;;52.60;27.98;;;13.40;99.90;;;;;;5050074;28;20052;-58
2023/09/02 01:02:44;;;;;;;55.13;30.05;;;13.40;99.90;;;;;;5046516;28;20045;-58
2023/09/02 01:05:13;;;;;;;55.60;30.85;;;13.40;99.90;;;;;;5045226;28;20048;-58
2023/09/02 01:07:42;;;;;;;82.95;46.90;;;13.40;99.90;;;;;;5045199;28;20041;-58
2023/09/02 01:10:10;;;;;;;62.30;34.85;;;13.50;99.90;;;;;;5046543;28;20045;-58
2023/09/02 01:12:37;;;;;;;56.42;33.00;;;13.50;99.90;;;;;;5055060;28;20043;-58
2023/09/02 01:15:06;;;;;;;60.50;34.28;;;13.50;99.90;;;;;;5053504;28;20052;-58
2023/09/02 01:17:33;;;;;;;52.35;30.35;;;13.50;99.90;;;;;;5049227;28;20531;-58
2023/09/02 01:20:05;;;;;;;52.25;30.02;;;13.60;99.90;;;;;;5048345;28;20060;-58
2023/09/02 01:22:58;;;;;;;53.58;31.20;;;13.60;99.90;;;;;;5042954;28;20520;-60
2023/09/02 01:25:40;;;;;;;65.70;34.40;;;13.60;99.90;;;;;;5051770;28;20435;-58
2023/09/02 01:28:16;;;;;;;59.42;31.35;;;13.60;99.90;;;;;;5049471;28;20045;-58
2023/09/02 01:30:47;;;;;;;68.10;34.65;;;13.60;99.90;;;;;;5026388;28;20041;-58
2023/09/02 01:33:17;;;;;;;71.80;38.53;;;13.60;99.90;;;;;;5047584;28;20409;-58
2023/09/02 01:35:45;;;;;;;65.82;35.45;;;13.60;99.90;;;;;;5032681;28;20037;-58
2023/09/02 01:38:15;;;;;;;68.40;34.00;;;13.60;99.90;;;;;;5034443;28;20052;-58
2023/09/02 01:40:45;;;;;;;62.03;34.13;;;13.60;99.90;;;;;;5072554;28;20127;-58
2023/09/02 01:43:17;;;;;;;68.60;33.50;;;13.60;99.90;;;;;;5072650;28;20411;-59
2023/09/02 01:45:46;;;;;;;64.15;33.65;;;13.60;99.90;;;;;;5065523;28;20045;-58
2023/09/02 01:48:15;;;;;;;63.85;34.67;;;13.60;99.90;;;;;;5052430;28;20507;-58
2023/09/02 01:50:43;;;;;;;64.82;32.35;;;13.60;99.90;;;;;;5051257;28;20049;-58
2023/09/02 01:53:11;;;;;;;60.25;31.55;;;13.60;99.90;;;;;;5051506;28;20048;-58
2023/09/02 01:55:39;;;;;;;64.68;32.75;;;13.60;99.90;;;;;;5052042;28;20078;-58
2023/09/02 01:58:07;;;;;;;66.53;32.58;;;13.60;99.90;;;;;;5050379;28;20045;-58
2023/09/02 02:00:35;;;;;;;62.45;33.88;;;13.60;99.90;;;;;;5051120;28;20053;-58
2023/09/02 02:03:04;;;;;;;65.28;31.27;;;13.60;99.90;;;;;;5052275;28;20041;-58
2023/09/02 02:05:39;;;;;;;62.20;31.98;;;13.60;99.90;;;;;;5052040;28;20060;-58
2023/09/02 02:08:12;;;;;;;64.60;31.35;;;13.60;99.90;;;;;;5050993;28;20037;-58
2023/09/02 02:10:41;;;;;;;62.15;30.85;;;13.70;99.90;;;;;;5051083;28;20051;-58
2023/09/02 02:13:09;;;;;;;63.25;31.05;;;13.70;99.90;;;;;;5062005;28;20045;-58
2023/09/02 02:15:37;;;;;;;59.40;31.23;;;13.70;99.90;;;;;;5072079;28;20530;-59
2023/09/02 02:18:04;;;;;;;62.22;31.00;;;13.70;99.90;;;;;;5070872;28;20044;-58
2023/09/02 02:20:44;;;;;;;60.63;30.00;;;13.70;99.90;;;;;;5052834;28;20045;-58
2023/09/02 02:23:11;;;;;;;65.45;30.42;;;13.80;99.90;;;;;;5051898;28;20388;-58
2023/09/02 02:25:40;;;;;;;58.30;30.00;;;13.80;99.90;;;;;;5052051;28;20045;-58
2023/09/02 02:28:08;;;;;;;61.10;30.88;;;13.80;99.90;;;;;;5051837;28;20511;-58
2023/09/02 02:30:35;;;;;;;63.03;31.55;;;13.80;99.90;;;;;;5050628;28;20048;-58
2023/09/02 02:33:03;;;;;;;60.97;31.00;;;13.80;99.90;;;;;;5050472;28;20485;-58
2023/09/02 02:35:32;;;;;;;64.95;31.98;;;13.80;99.90;;;;;;5051841;28;20045;-58
2023/09/02 02:37:59;;;;;;;70.45;33.05;;;13.80;99.90;;;;;;5051786;28;20041;-58
2023/09/02 02:40:27;;;;;;;69.38;32.03;;;13.80;99.90;;;;;;5051597;28;20049;-58
2023/09/02 02:42:55;;;;;;;62.38;31.33;;;13.80;99.90;;;;;;5060764;28;20400;-58
2023/09/02 02:45:23;;;;;;;57.63;28.85;;;13.80;99.90;;;;;;5053938;28;20055;-58
2023/09/02 02:47:50;;;;;;;58.17;28.02;;;13.80;99.90;;;;;;5071664;28;20037;-58
2023/09/02 02:50:18;;;;;;;67.75;30.55;;;13.80;99.90;;;;;;5070379;28;20500;-58
2023/09/02 02:52:46;;;;;;;68.43;29.67;;;13.80;99.90;;;;;;5070126;28;20059;-58
2023/09/02 02:55:13;;;;;;;65.47;29.15;;;13.80;99.90;;;;;;5070276;28;20049;-58
2023/09/02 02:57:47;;;;;;;66.82;30.48;;;13.80;99.90;;;;;;5070268;28;20049;-59
2023/09/02 03:00:14;;;;;;;60.28;28.27;;;13.80;99.90;;;;;;5061338;28;20520;-58
2023/09/02 03:02:42;;;;;;;58.22;28.27;;;13.80;99.90;;;;;;5050494;28;20037;-60
2023/09/02 03:05:10;;;;;;;63.63;29.75;;;13.80;99.90;;;;;;5039408;28;20042;-58
2023/09/02 03:07:39;;;;;;;58.13;28.52;;;13.80;99.90;;;;;;5031259;28;20045;-58
2023/09/02 03:10:08;;;;;;;61.33;26.30;;;13.80;99.90;;;;;;5032161;28;20386;-59
2023/09/02 03:12:35;;;;;;;62.67;25.83;;;13.80;99.90;;;;;;5043393;28;20041;-58
2023/09/02 03:15:07;;;;;;;60.47;26.23;;;13.80;99.90;;;;;;5070219;28;20045;-58
2023/09/02 03:17:35;;;;;;;62.00;25.90;;;13.70;99.90;;;;;;5070207;28;20037;-58
2023/09/02 03:20:06;;;;;;;70.95;29.88;;;13.70;99.90;;;;;;5054157;28;20408;-58
2023/09/02 03:22:34;;;;;;;;;;;13.70;99.90;;;;;;5049773;28;20388;-59
2023/09/02 03:25:02;;;;;;;78.40;31.13;;;13.70;99.90;;;;;;5050193;28;19927;-59
2023/09/02 03:27:30;;;;;;;66.63;29.60;;;13.70;99.90;;;;;;5033324;28;20052;-59
2023/09/02 03:29:58;;;;;;;62.03;27.52;;;13.70;99.90;;;;;;5049958;28;20051;-59
2023/09/02 03:32:26;;;;;;;64.78;27.60;;;13.60;99.90;;;;;;5050035;28;20484;-59
2023/09/02 03:34:55;;;;;;;64.70;26.67;;;13.60;99.90;;;;;;5049847;28;20049;-59
2023/09/02 03:37:24;;;;;;;65.68;28.27;;;13.60;99.90;;;;;;5051172;28;20045;-59
2023/09/02 03:39:53;;;;;;;59.95;27.35;;;13.50;99.90;;;;;;5049833;28;20404;-59
2023/09/02 03:42:21;;;;;;;58.63;24.70;;;13.40;99.90;;;;;;5055218;28;20505;-59
2023/09/02 03:44:48;;;;;;;53.40;25.40;;;13.40;99.90;;;;;;5070057;28;20489;-59
2023/09/02 03:47:16;;;;;;;56.28;26.42;;;13.30;99.90;;;;;;5068989;28;20039;-59
2023/09/02 03:49:44;;;;;;;58.65;26.63;;;13.20;99.90;;;;;;5044110;28;20041;-59
2023/09/02 03:52:12;;;;;;;59.85;26.85;;;13.10;99.90;;;;;;5030970;28;20053;-59
2023/09/02 03:54:40;;;;;;;72.07;27.63;;;13.10;99.90;;;;;;5031077;28;20053;-59
2023/09/02 03:57:08;;;;;;;72.72;29.35;;;13.00;99.90;;;;;;5029728;28;20519;-59
2023/09/02 03:59:36;;;;;;;69.80;28.27;;;13.00;99.90;;;;;;5046245;28;20038;-59
2023/09/02 04:02:03;;;;;;;60.47;27.48;;;12.90;99.90;;;;;;5044680;28;20045;-59
2023/09/02 04:04:31;;;;;;;69.53;26.27;;;12.90;99.90;;;;;;5049608;28;20124;-59
2023/09/02 04:06:59;;;;;;;66.32;27.15;;;12.80;99.90;;;;;;5049674;28;20041;-59
2023/09/02 04:09:27;;;;;;;60.80;26.35;;;12.80;99.90;;;;;;5050838;28;20056;-59
2023/09/02 04:11:57;;;;;;;61.65;25.70;;;12.80;99.90;;;;;;5050161;28;20053;-59
2023/09/02 04:14:25;;;;;;;68.75;26.75;;;12.70;99.90;;;;;;5052747;28;20048;-59
2023/09/02 04:16:54;;;;;;;59.83;25.30;;;12.70;99.90;;;;;;5072356;28;20041;-58
2023/09/02 04:19:23;;;;;;;57.60;24.35;;;12.70;99.90;;;;;;5072857;28;20038;-58
2023/09/02 04:21:52;;;;;;;60.38;24.65;;;12.70;99.90;;;;;;5068244;28;20052;-59
2023/09/02 04:24:20;;;;;;;57.65;23.52;;;12.60;99.90;;;;;;5053234;28;20067;-59
2023/09/02 04:26:47;;;;;;;65.13;23.92;;;12.60;99.90;;;;;;5054154;28;20060;-59
2023/09/02 04:29:17;;;;;;;;;;;12.60;99.90;;;;;;5053077;28;20052;-59
2023/09/02 04:31:45;;;;;;;54.60;21.45;;;12.60;99.90;;;;;;5052856;28;19920;-59
2023/09/02 04:34:13;;;;;;;67.05;24.40;;;12.50;99.90;;;;;;5052767;28;20041;-59
2023/09/02 04:36:41;;;;;;;58.75;23.88;;;12.50;99.90;;;;;;5052911;28;20048;-59
2023/09/02 04:39:09;;;;;;;56.65;22.85;;;12.40;99.90;;;;;;5053857;28;20056;-59
2023/09/02 04:41:37;;;;;;;56.03;24.10;;;12.40;99.90;;;;;;5053613;28;20055;-59
2023/09/02 04:44:05;;;;;;;49.58;20.83;;;12.40;99.90;;;;;;5062957;28;20037;-59
2023/09/02 04:46:33;;;;;;;51.13;21.67;;;12.40;99.90;;;;;;5052883;28;20709;-59
2023/09/02 04:49:00;;;;;;;59.72;22.15;;;12.30;99.90;;;;;;5042840;28;20056;-59
2023/09/02 04:51:28;;;;;;;56.08;22.20;;;12.30;99.90;;;;;;5050230;28;20382;-59
2023/09/02 04:53:57;;;;;;;62.05;23.60;;;12.30;99.90;;;;;;5048935;28;20519;-59
2023/09/02 04:56:24;;;;;;;57.55;22.33;;;12.30;99.90;;;;;;5032527;28;20514;-59
2023/09/02 04:58:52;;;;;;;55.35;22.48;;;12.30;99.90;;;;;;5048659;28;20053;-59
2023/09/02 05:01:23;;;;;;;55.85;21.95;;;12.30;99.90;;;;;;5041054;28;20049;-58
2023/09/02 05:03:57;;;;;;;49.70;20.88;;;12.30;99.90;;;;;;5037489;28;20037;-59
2023/09/02 05:06:25;;;;;;;54.20;21.30;;;12.20;99.90;;;;;;5041502;28;20053;-59
2023/09/02 05:08:54;;;;;;;57.33;21.10;;;12.20;99.90;;;;;;5031465;28;20049;-58
2023/09/02 05:11:24;;;;;;;;;;;12.20;99.90;;;;;;5049249;28;20041;-59
2023/09/02 05:13:52;;;;;;;53.33;20.98;;;12.20;99.90;;;;;;5047820;28;19920;-59
2023/09/02 05:16:20;;;;;;;54.53;21.05;;;12.20;99.90;;;;;;5027872;28;20046;-59
2023/09/02 05:18:48;;;;;;;49.45;20.15;;;12.20;99.90;;;;;;5031595;28;20501;-59
2023/09/02 05:21:16;;;;;;;50.65;21.05;;;12.20;99.90;;;;;;5043913;28;20057;-59
2023/09/02 05:23:46;;;;;;;56.65;21.08;;;12.20;99.90;;;;;;5036301;28;20052;-59
2023/09/02 05:26:13;;;;;;;50.17;19.33;;;12.30;99.90;;;;;;5045766;28;20075;-59
2023/09/02 05:28:41;;;;;;;51.63;20.77;;;12.30;99.90;;;;;;5047001;28;20551;-59
2023/09/02 05:31:09;;;;;;;50.13;20.88;;;12.30;99.90;;;;;;5049675;28;20041;-59
2023/09/02 05:33:37;;;;;;;53.75;21.02;;;12.30;99.90;;;;;;5039498;28;20045;-59
2023/09/02 05:36:05;;;;;;;46.17;20.30;;;12.30;99.90;;;;;;5048184;28;20061;-59
2023/09/02 05:38:33;;;;;;;45.58;18.30;;;12.30;99.90;;;;;;5046043;28;20049;-58
2023/09/02 05:41:01;;;;;;;43.45;18.27;;;12.40;99.90;;;;;;5046953;28;20048;-59
2023/09/02 05:43:29;;;;;;;41.40;17.88;;;12.40;99.90;;;;;;5062647;28;20385;-60
2023/09/02 05:46:01;;;;;;;44.65;18.65;;;12.40;99.90;;;;;;5062101;28;20049;-59
2023/09/02 05:48:29;;;;;;;40.00;18.58;;;12.50;99.90;;;;;;5041975;28;20053;-59
2023/09/02 05:50:57;;;;;;;43.85;18.40;;;12.50;99.90;;;;;;5025632;28;20052;-59
2023/09/02 05:53:25;;;;;;;47.47;19.98;;;12.60;99.90;;;;;;5047555;28;20040;-59
2023/09/02 05:55:54;;;;;;;46.58;21.35;;;12.60;99.90;;;;;;5049043;28;20053;-59
2023/09/02 05:58:24;;;;;;;51.80;21.13;;;12.70;99.90;;;;;;5059165;28;20048;-59
2023/09/02 06:00:51;;;;;;;57.08;23.15;;;12.70;99.90;;;;;;5067799;28;20056;-59
2023/09/02 06:03:19;;;;;;;57.60;24.50;;;12.80;99.90;;;;;;5056573;28;20041;-59
2023/09/02 06:05:48;;;;;;;54.45;24.83;;;12.80;99.90;;;;;;5027650;28;20049;-59
2023/09/02 06:08:17;;;;;;;56.65;24.08;;;12.90;99.90;;;;;;5037931;28;20236;-59
2023/09/02 06:10:58;;;;;;;62.28;25.27;;;12.90;99.90;;;;;;5048668;28;20044;-59
2023/09/02 06:13:26;;;;;;;58.42;24.77;;;13.00;99.90;;;;;;5052134;28;20048;-59
2023/09/02 06:16:02;;;;;;;48.03;23.60;;;13.00;99.90;;;;;;5032988;28;20049;-59
2023/09/02 06:18:31;;;;;;;58.80;24.52;;;13.10;99.90;;;;;;5043080;28;20109;-59
2023/09/02 06:21:07;;;;;;;57.27;24.37;;;13.10;99.90;;;;;;5027394;28;20061;-59
2023/09/02 06:23:35;;;;;;;62.50;24.90;;;13.10;99.90;;;;;;5043173;28;20384;-59
2023/09/02 06:26:03;;;;;;;53.28;24.52;;;13.20;99.90;;;;;;5066188;28;20480;-59
2023/09/02 06:28:31;;;;;;;68.80;25.83;;;13.20;99.90;;;;;;5056812;28;20504;-61
2023/09/02 06:31:04;;;;;;;61.90;26.75;;;13.30;99.90;;;;;;5048458;28;20072;-59
2023/09/02 06:33:32;;;;;;;66.72;27.98;;;13.30;99.90;;;;;;5048358;28;20033;-59
2023/09/02 06:36:07;;;;;;;62.38;26.23;;;13.40;99.90;;;;;;5048392;28;20053;-58
2023/09/02 06:38:35;;;;;;;65.75;27.42;;;13.40;99.90;;;;;;5060035;28;20048;-58
2023/09/02 06:41:15;;;;;;;65.35;26.95;;;13.40;99.90;;;;;;5063798;28;20060;-58
2023/09/02 06:43:43;;;;;;;73.10;27.40;;;13.50;99.90;;;;;;5064443;28;20044;-58
2023/09/02 06:46:16;;;;;;;64.78;26.10;;;13.60;99.90;;;;;;5057261;28;20072;-58
2023/09/02 06:48:44;;;;;;;62.83;25.52;;;13.60;99.90;;;;;;5038923;28;20037;-59
2023/09/02 06:51:13;;;;;;;59.80;24.55;;;13.60;99.90;;;;;;5027140;28;20045;-59
2023/09/02 06:53:41;;;;;;;57.92;24.70;;;13.70;99.90;;;;;;5051284;28;20051;-58
2023/09/02 06:56:13;;;;;;;59.58;24.15;;;13.80;99.90;;;;;;5054300;28;20045;-58
2023/09/02 06:58:42;;;;;;;58.60;23.13;;;13.80;99.90;;;;;;5047821;28;20056;-59
2023/09/02 07:01:22;;;;;;;56.15;23.15;;;13.90;99.90;;;;;;5044449;28;20052;-58
2023/09/02 07:03:53;;;;;;;53.22;21.98;;;14.00;99.90;;;;;;5039303;28;20045;-59
2023/09/02 07:06:21;;;;;;;50.60;21.17;;;14.00;99.90;;;;;;5024768;28;20716;-58
2023/09/02 07:08:49;;;;;;;61.47;23.90;;;14.10;99.90;;;;;;5037009;28;20045;-58
2023/09/02 07:11:17;;;;;;;61.60;23.50;;;14.20;99.90;;;;;;5039710;28;20053;-58
2023/09/02 07:13:47;;;;;;;52.33;22.15;;;14.30;99.90;;;;;;5062925;28;20419;-59
2023/09/02 07:16:15;;;;;;;57.47;21.52;;;14.40;99.90;;;;;;5059354;28;20045;-59
2023/09/02 07:18:44;;;;;;;62.65;22.73;;;14.50;99.90;;;;;;5044411;28;20060;-62
2023/09/02 07:21:11;;;;;;;58.22;23.70;;;14.60;99.90;;;;;;5027001;28;20072;-59
2023/09/02 07:23:39;;;;;;;51.92;21.00;;;14.70;99.90;;;;;;5036984;28;20049;-59
2023/09/02 07:26:07;;;;;;;54.65;21.63;;;14.80;99.90;;;;;;5047851;28;20041;-59
2023/09/02 07:28:36;;;;;;;53.47;21.70;;;14.90;99.90;;;;;;5047807;28;20060;-59
2023/09/02 07:31:07;;;;;;;51.90;23.33;;;15.00;99.90;;;;;;5047522;28;20412;-59
2023/09/02 07:33:36;;;;;;;47.78;21.38;;;15.10;99.90;;;;;;5046502;28;20049;-59
2023/09/02 07:36:13;;;;;;;43.83;19.55;;;15.20;99.90;;;;;;5044471;28;20041;-59
2023/09/02 07:38:44;;;;;;;46.78;19.27;;;15.30;99.90;;;;;;5047670;28;20064;-59
2023/09/02 07:41:11;;;;;;;50.58;21.08;;;15.40;99.90;;;;;;5048157;28;20048;-59
2023/09/02 07:43:39;;;;;;;45.88;19.95;;;15.50;99.90;;;;;;5053398;28;20070;-59
2023/09/02 07:46:09;;;;;;;53.95;21.35;;;15.60;99.90;;;;;;5047504;28;20056;-59
2023/09/02 07:48:37;;;;;;;45.90;20.70;;;15.60;99.90;;;;;;5047179;28;20049;-58
2023/09/02 07:51:05;;;;;;;46.58;21.73;;;15.70;99.90;;;;;;5028416;28;20393;-58
2023/09/02 07:53:32;;;;;;;44.67;20.83;;;15.80;99.90;;;;;;5047271;28;20056;-59
2023/09/02 07:56:01;;;;;;;43.60;19.00;;;15.90;99.90;;;;;;5051651;28;20053;-59
2023/09/02 07:58:29;;;;;;;40.97;18.75;;;16.00;99.90;;;;;;5049837;28;20049;-58
2023/09/02 08:00:56;;;;;;;41.13;19.77;;;16.10;99.90;;;;;;5049948;28;20045;-58
2023/09/02 08:03:25;;;;;;;38.70;19.33;;;16.20;99.90;;;;;;5050913;28;20060;-59
2023/09/02 08:05:53;;;;;;;45.33;20.73;;;16.30;99.90;;;;;;5045592;28;20053;-59
2023/09/02 08:08:22;;;;;;;41.13;18.85;;;16.40;99.90;;;;;;5040603;28;20048;-58
2023/09/02 08:11:01;;;;;;;38.15;19.25;;;16.50;99.90;;;;;;5049822;28;20045;-59
2023/09/02 08:13:29;;;;;;;38.30;19.23;;;16.50;99.90;;;;;;5063249;28;20051;-59
2023/09/02 08:15:57;;;;;;;37.03;19.05;;;16.60;99.90;;;;;;5061459;28;20053;-58
2023/09/02 08:18:25;;;;;;;34.50;17.48;;;16.70;99.90;;;;;;5050811;28;20061;-60
2023/09/02 08:20:53;;;;;;;33.05;18.08;;;16.70;99.90;;;;;;5049055;28;20060;-59
2023/09/02 08:23:20;;;;;;;30.80;16.17;;;16.80;99.90;;;;;;5050565;28;20049;-59
2023/09/02 08:25:48;;;;;;;31.77;16.10;;;16.90;99.90;;;;;;5050857;28;20293;-59
2023/09/02 08:28:16;;;;;;;25.30;16.08;;;17.00;99.90;;;;;;5050571;28;20075;-59
2023/09/02 08:30:44;;;;;;;25.10;14.77;;;17.00;99.90;;;;;;5050652;28;20480;-58
2023/09/02 08:33:11;;;;;;;31.25;14.02;;;17.10;99.90;;;;;;5055353;28;20430;-59
2023/09/02 08:35:39;;;;;;;25.50;14.02;;;17.20;99.90;;;;;;5042154;28;20054;-59
2023/09/02 08:38:06;;;;;;;24.55;13.75;;;17.30;99.90;;;;;;5037975;28;20049;-59
2023/09/02 08:40:34;;;;;;;25.67;13.88;;;17.40;99.90;;;;;;5044787;28;20068;-59
2023/09/02 08:43:02;;;;;;;23.77;13.35;;;17.50;99.90;;;;;;5049041;28;20040;-59
2023/09/02 08:45:33;;;;;;;23.35;13.45;;;17.60;99.90;;;;;;5068122;28;20087;-59
2023/09/02 08:48:02;;;;;;;22.55;13.57;;;17.70;99.90;;;;;;5049914;28;20053;-59
2023/09/02 08:50:30;;;;;;;21.73;12.00;;;17.80;99.90;;;;;;5038476;28;20389;-63
2023/09/02 08:52:58;;;;;;;19.20;12.40;;;17.90;99.90;;;;;;5035761;28;20056;-58
2023/09/02 08:55:28;;;;;;;21.95;12.70;;;18.00;99.90;;;;;;5053505;28;20056;-59
2023/09/02 08:57:56;;;;;;;20.73;11.88;;;18.10;99.90;;;;;;5036364;28;20064;-58
2023/09/02 09:00:24;;;;;;;23.48;11.25;;;18.20;99.90;;;;;;5050083;28;20643;-59
2023/09/02 09:02:53;;;;;;;26.67;12.18;;;18.30;99.90;;;;;;5047987;28;20056;-58
2023/09/02 09:05:23;;;;;;;19.38;11.05;;;18.50;99.90;;;;;;5051788;28;20048;-59
2023/09/02 09:07:51;;;;;;;19.48;10.68;;;18.60;99.90;;;;;;5040623;28;20512;-59
2023/09/02 09:10:21;;;;;;;19.30;10.55;;;18.80;99.90;;;;;;5069854;28;20303;-59
2023/09/02 09:12:50;;;;;;;;;;;18.90;99.90;;;;;;5056081;28;20037;-59
2023/09/02 09:15:18;;;;;;;16.02;10.32;;;19.00;99.90;;;;;;5049961;28;19921;-58
2023/09/02 09:17:47;;;;;;;13.23;9.13;;;19.00;99.90;;;;;;5049646;28;20396;-58
2023/09/02 09:20:15;;;;;;;15.13;8.82;;;19.00;99.90;;;;;;5044197;28;20433;-59
2023/09/02 09:22:43;;;;;;;17.48;9.27;;;19.00;99.90;;;;;;5030875;28;20057;-59
2023/09/02 09:25:12;;;;;;;15.85;9.20;;;19.00;99.90;;;;;;5069644;28;20468;-59
2023/09/02 09:27:39;;;;;;;15.00;8.10;;;19.00;99.90;;;;;;5065730;28;20044;-59
2023/09/02 09:30:27;;;;;;;14.93;8.15;;;19.10;99.90;;;;;;5049532;28;20484;-59
2023/09/02 09:33:00;;;;;;;10.80;6.57;;;19.10;99.90;;;;;;5050944;28;20048;-58
2023/09/02 09:35:29;;;;;;;11.35;6.60;;;19.10;99.90;;;;;;5054247;28;20037;-59
2023/09/02 09:37:57;;;;;;;12.82;7.18;;;19.10;99.90;;;;;;5055385;28;20055;-58
2023/09/02 09:40:38;;;;;;;12.38;6.55;;;19.20;99.90;;;;;;5069581;28;20051;-59
2023/09/02 09:43:16;;;;;;;12.27;6.95;;;19.10;99.90;;;;;;5067736;28;20048;-58
2023/09/02 09:45:54;;;;;;;10.50;5.87;;;19.10;99.90;;;;;;5063768;28;20041;-59
2023/09/02 09:48:22;;;;;;;7.68;4.53;;;19.20;99.90;;;;;;5058675;28;20044;-59
2023/09/02 09:50:51;;;;;;;6.13;3.40;;;19.20;99.90;;;;;;5041890;28;20049;-58
2023/09/02 09:53:20;;;;;;;5.47;3.47;;;19.20;99.90;;;;;;5040004;28;20048;-59
2023/09/02 09:55:48;;;;;;;6.88;3.95;;;19.30;99.90;;;;;;5069720;28;20768;-58
2023/09/02 09:58:22;;;;;;;7.85;3.90;;;19.30;99.90;;;;;;5058869;28;20053;-59
2023/09/02 10:00:52;;;;;;;5.85;3.50;;;19.50;99.90;;;;;;5031975;28;20496;-60
2023/09/02 10:03:29;;;;;;;5.73;3.00;;;19.60;99.90;;;;;;5054115;28;20057;-59
2023/09/02 10:06:01;;;;;;;5.75;3.50;;;19.70;99.90;;;;;;5047781;28;20829;-58
2023/09/02 10:08:51;;;;;;;7.53;3.53;;;19.80;99.90;;;;;;5047316;28;20053;-58
2023/09/02 10:11:23;;;;;;;4.95;2.85;;;19.90;99.90;;;;;;5048816;28;20041;-59
2023/09/02 10:13:52;;;;;;;6.60;3.05;;;20.00;99.90;;;;;;5060725;28;20044;-58
2023/09/02 10:16:22;;;;;;;7.47;2.83;;;20.00;99.90;;;;;;5054828;28;20059;-59
2023/09/02 10:18:50;;;;;;;6.90;3.15;;;20.00;99.90;;;;;;5058258;28;20371;-59
2023/09/02 10:21:19;;;;;;;4.03;2.30;;;20.00;99.90;;;;;;5031866;28;20057;-59
2023/09/02 10:23:57;;;;;;;5.30;2.45;;;19.90;99.90;;;;;;5032561;28;20519;-59
2023/09/02 10:26:36;;;;;;;4.55;2.10;;;19.90;99.90;;;;;;5045388;28;20044;-60
2023/09/02 10:29:12;;;;;;;5.55;2.35;;;19.90;99.90;;;;;;5060041;28;20068;-59
2023/09/02 10:31:42;;;;;;;7.75;2.80;;;20.00;99.90;;;;;;5065046;28;20045;-60
2023/09/02 10:34:18;;;;;;;4.15;2.28;;;20.10;99.90;;;;;;5052473;28;20049;-59
2023/09/02 10:36:57;;;;;;;6.10;2.47;;;20.30;99.90;;;;;;5030445;28;20546;-59
2023/09/02 10:39:58;;;;;;;3.40;2.00;;;20.30;99.90;;;;;;5043105;28;20053;-59
2023/09/02 10:42:27;;;;;;;3.97;2.10;;;20.30;99.90;;;;;;5045389;28;20041;-59
2023/09/02 10:44:56;;;;;;;3.67;2.30;;;20.30;99.90;;;;;;5044861;28;20780;-59
2023/09/02 10:47:24;;;;;;;5.05;2.47;;;20.30;99.90;;;;;;5045136;28;20400;-59
2023/09/02 10:49:54;;;;;;;4.40;2.10;;;20.30;99.90;;;;;;5045083;28;20437;-59
2023/09/02 10:52:21;;;;;;;3.10;2.03;;;20.30;99.90;;;;;;5026332;28;20038;-59
2023/09/02 10:55:03;;;;;;;5.40;2.17;;;20.40;99.90;;;;;;5043886;28;20057;-59
2023/09/02 10:57:45;;;;;;;4.35;2.13;;;20.70;99.90;;;;;;5047193;28;20045;-59
2023/09/02 11:00:26;;;;;;;4.85;1.80;;;20.90;99.90;;;;;;5035171;28;20344;-59
2023/09/02 11:02:56;;;;;;;5.32;2.25;;;21.00;99.90;;;;;;5026037;28;20041;-60
2023/09/02 11:05:27;;;;;;;;;;;21.10;99.90;;;;;;5031964;28;20049;-59
2023/09/02 11:07:55;;;;;;;4.63;1.90;;;21.10;99.90;;;;;;5030075;28;19921;-59
2023/09/02 11:10:55;;;;;;;5.63;2.25;;;21.10;99.90;;;;;;5044484;28;20366;-59
2023/09/02 11:13:22;;;;;;;2.03;1.60;;;21.10;99.90;;;;;;5040245;28;20040;-59
2023/09/02 11:16:14;;;;;;;7.35;2.00;;;21.10;99.90;;;;;;5058175;28;20048;-59
2023/09/02 11:18:42;;;;;;;3.20;2.03;;;21.00;99.90;;;;;;5036681;28;20513;-59
2023/09/02 11:21:10;;;;;;;5.25;1.85;;;21.00;99.90;;;;;;5051035;28;20073;-60
2023/09/02 11:23:38;;;;;;;3.63;1.50;;;21.10;99.90;;;;;;5029960;28;20049;-59
2023/09/02 11:26:07;;;;;;;4.72;1.80;;;21.30;99.90;;;;;;5045230;28;20037;-61
2023/09/02 11:28:35;;;;;;;2.07;1.60;;;21.70;99.90;;;;;;5057886;28;20045;-60
2023/09/02 11:31:04;;;;;;;8.65;1.80;;;22.20;99.90;;;;;;5061125;28;20048;-59
2023/09/02 11:33:33;;;;;;;3.58;1.27;;;22.60;99.90;;;;;;5054624;28;20400;-59
2023/09/02 11:36:06;;;;;;;4.38;1.77;;;22.70;99.90;;;;;;5059627;28;20037;-59
2023/09/02 11:38:34;;;;;;;3.00;1.83;;;22.70;99.90;;;;;;5043256;28;20044;-59
2023/09/02 11:41:02;;;;;;;6.53;1.60;;;22.50;99.90;;;;;;5048159;28;20045;-59
2023/09/02 11:43:32;;;;;;;3.58;1.50;;;22.40;99.90;;;;;;5053318;28;20056;-59
2023/09/02 11:46:01;;;;;;;5.47;1.70;;;22.30;99.90;;;;;;5046701;28;20072;-60
2023/09/02 11:48:30;;;;;;;2.83;1.65;;;22.30;99.90;;;;;;5057899;28;20047;-60
2023/09/02 11:50:59;;;;;;;3.63;1.50;;;22.40;99.90;;;;;;5062282;28;20052;-60
2023/09/02 11:53:29;;;;;;;2.60;1.60;;;22.30;99.90;;;;;;5032360;28;20396;-60
2023/09/02 11:55:57;;;;;;;6.88;1.45;;;22.30;99.90;;;;;;5047050;28;20044;-60
2023/09/02 11:58:25;;;;;;;2.40;1.35;;;22.30;99.90;;;;;;5057433;28;20045;-60
2023/09/02 12:00:53;;;;;;;2.75;1.50;;;22.20;99.90;;;;;;5027570;28;20065;-60
2023/09/02 12:03:27;;;;;;;4.50;1.65;;;22.20;99.90;;;;;;5032696;28;20041;-59
2023/09/02 12:05:59;;;;;;;3.78;1.50;;;22.30;99.90;;;;;;5045505;28;20049;-60
2023/09/02 12:08:29;;;;;;;2.92;1.35;;;22.80;99.90;;;;;;5037240;28;20053;-60
2023/09/02 12:11:01;;;;;;;3.08;1.50;;;23.00;99.90;;;;;;5047033;28;20059;-60
2023/09/02 12:13:30;;;;;;;3.13;1.25;;;22.90;99.90;;;;;;5054730;28;20048;-60
2023/09/02 12:15:58;;;;;;;3.33;1.30;;;22.80;99.90;;;;;;5066437;28;20040;-60
2023/09/02 12:18:26;;;;;;;2.80;1.00;;;22.60;99.90;;;;;;5047891;28;20056;-60
2023/09/02 12:20:54;;;;;;;3.05;1.50;;;22.40;99.90;;;;;;5047640;28;20049;-59
2023/09/02 12:23:21;;;;;;;6.60;1.67;;;22.40;99.90;;;;;;5036491;28;20045;-59
2023/09/02 12:26:08;;;;;;;4.25;1.70;;;22.30;99.90;;;;;;5066508;28;20050;-59
2023/09/02 12:28:37;;;;;;;4.90;1.63;;;22.20;99.90;;;;;;5039375;28;20402;-59
2023/09/02 12:31:05;;;;;;;3.97;1.73;;;22.10;99.90;;;;;;5047485;28;20041;-62
2023/09/02 12:33:33;;;;;;;3.38;1.52;;;22.00;99.90;;;;;;5053336;28;20396;-60
2023/09/02 12:36:05;;;;;;;2.25;1.20;;;22.00;99.90;;;;;;5058789;28;20045;-60
2023/09/02 12:38:48;;;;;;;3.88;1.30;;;22.00;99.90;;;;;;5040333;28;20501;-60
2023/09/02 12:41:18;;;;;;;4.97;1.65;;;22.00;99.90;;;;;;5050549;28;20061;-59
2023/09/02 12:43:46;;;;;;;1.50;1.25;;;22.30;99.90;;;;;;5058122;28;20060;-59
2023/09/02 12:46:19;;;;;;;3.30;1.58;;;22.90;99.90;;;;;;5049749;28;20495;-59